Time;durP1;ratioP1;P1;durP2;ratioP2;P2;SDS_P1;SDS_P2;PMS_P1;PMS_P2;Temp;Humidity;BMP_temperature;BMP_pressure;BME280_temperature;BME280_humidity;BME280_pressure;Samples;Min_cycle;Max_cycle;Signal;HPM_P1;HPM_P2
2021/08/21 00:01:52;;;;;;;2.33;2.22;;;;;;;;;;5070318;28;20254;-81
2021/08/21 00:04:19;;;;;;;2.30;2.20;;;;;;;;;;5071564;28;20254;-81
2021/08/21 00:06:46;;;;;;;2.63;2.43;;;;;;;;;;5071587;28;20249;-81
2021/08/21 00:09:13;;;;;;;2.50;2.30;;;;;;;;;;5069791;28;20198;-81
2021/08/21 00:11:40;;;;;;;4.00;2.38;;;;;;;;;;5070290;28;20210;-81
2021/08/21 00:14:07;;;;;;;4.45;2.70;;;;;;;;;;5069557;28;20222;-81
2021/08/21 00:16:34;;;;;;;2.83;2.63;;;;;;;;;;5071350;28;20238;-81
2021/08/21 00:19:03;;;;;;;2.80;2.00;;;;;;;;;;5071144;28;20241;-81
2021/08/21 00:21:30;;;;;;;2.83;2.40;;;;;;;;;;5071366;28;20249;-81
2021/08/21 00:23:56;;;;;;;2.57;2.37;;;;;;;;;;5086544;28;20253;-81
2021/08/21 00:26:23;;;;;;;2.27;2.13;;;;;;;;;;5071524;28;20324;-81
2021/08/21 00:28:49;;;;;;;3.53;2.60;;;;;;;;;;5070826;28;20344;-81
2021/08/21 00:31:16;;;;;;;3.67;2.70;;;;;;;;;;5071894;28;20194;-81
2021/08/21 00:33:43;;;;;;;3.43;2.27;;;;;;;;;;5071209;28;20226;-80
2021/08/21 00:36:11;;;;;;;2.90;2.70;;;;;;;;;;5053247;28;20619;-81
2021/08/21 00:38:38;;;;;;;2.50;2.40;;;;;;;;;;5053192;28;20203;-81
2021/08/21 00:41:06;;;;;;;2.67;2.57;;;;;;;;;;5070933;28;20223;-81
2021/08/21 00:43:34;;;;;;;3.00;2.80;;;;;;;;;;5052358;28;20234;-81
2021/08/21 00:46:00;;;;;;;3.13;2.83;;;;;;;;;;5070570;28;20238;-81
2021/08/21 00:48:27;;;;;;;3.40;2.60;;;;;;;;;;5070527;28;20232;-81
2021/08/21 00:50:54;;;;;;;4.43;3.10;;;;;;;;;;5070921;28;20218;-81
2021/08/21 00:53:22;;;;;;;3.23;2.90;;;;;;;;;;5052966;28;20186;-81
2021/08/21 00:55:49;;;;;;;2.90;2.80;;;;;;;;;;5053166;28;20202;-81
2021/08/21 00:58:17;;;;;;;3.17;2.97;;;;;;;;;;5070978;28;21058;-81
2021/08/21 01:00:43;;;;;;;3.30;2.73;;;;;;;;;;5052333;28;20666;-81
2021/08/21 01:03:10;;;;;;;2.90;2.70;;;;;;;;;;5070877;28;20450;-82
2021/08/21 01:05:37;;;;;;;3.43;2.83;;;;;;;;;;5052573;28;20210;-81
2021/08/21 01:08:03;;;;;;;2.80;2.60;;;;;;;;;;5070787;28;20234;-82
2021/08/21 01:10:31;;;;;;;3.13;2.93;;;;;;;;;;5071097;28;20237;-81
2021/08/21 01:12:58;;;;;;;3.20;3.00;;;;;;;;;;5070958;28;20582;-81
2021/08/21 01:15:25;;;;;;;2.77;2.67;;;;;;;;;;5052019;28;20745;-81
2021/08/21 01:17:53;;;;;;;3.10;2.90;;;;;;;;;;5070474;28;20245;-81
2021/08/21 01:20:19;;;;;;;3.30;3.00;;;;;;;;;;5052157;28;20199;-82
2021/08/21 01:22:46;;;;;;;4.37;3.23;;;;;;;;;;5070729;28;20210;-82
2021/08/21 01:25:14;;;;;;;5.07;2.80;;;;;;;;;;5053187;28;20287;-82
2021/08/21 01:27:42;;;;;;;3.20;3.00;;;;;;;;;;5069369;28;20527;-81
2021/08/21 01:30:09;;;;;;;2.93;2.73;;;;;;;;;;5070659;28;20274;-80
2021/08/21 01:32:36;;;;;;;3.40;3.10;;;;;;;;;;5069543;28;20238;-81
2021/08/21 01:35:03;;;;;;;3.30;3.10;;;;;;;;;;5070697;28;20581;-81
2021/08/21 01:37:29;;;;;;;3.47;3.27;;;;;;;;;;5086316;28;20202;-81
2021/08/21 01:39:57;;;;;;;3.33;3.13;;;;;;;;;;5068623;28;20230;-80
2021/08/21 01:42:24;;;;;;;3.83;3.53;;;;;;;;;;5068988;28;20225;-81
2021/08/21 01:44:52;;;;;;;4.07;3.77;;;;;;;;;;5068821;28;20242;-82
2021/08/21 01:47:19;;;;;;;3.50;3.23;;;;;;;;;;5069164;28;20279;-81
2021/08/21 01:49:50;;;;;;;4.00;3.43;;;;;;;;;;5068747;28;20252;-81
2021/08/21 01:52:17;;;;;;;3.83;3.60;;;;;;;;;;5070538;28;20582;-81
2021/08/21 01:54:44;;;;;;;3.63;3.33;;;;;;;;;;5073346;28;20670;-81
2021/08/21 01:57:10;;;;;;;7.23;3.90;;;;;;;;;;5072167;28;20237;-81
2021/08/21 01:59:37;;;;;;;5.23;3.63;;;;;;;;;;5072889;28;20190;-81
2021/08/21 02:02:06;;;;;;;4.40;4.10;;;;;;;;;;5089499;28;20207;-81
2021/08/21 02:04:33;;;;;;;4.23;3.93;;;;;;;;;;5071799;28;20250;-81
2021/08/21 02:07:00;;;;;;;4.00;3.80;;;;;;;;;;5073564;28;20234;-81
2021/08/21 02:09:27;;;;;;;4.20;3.80;;;;;;;;;;5074183;28;20203;-81
2021/08/21 02:11:55;;;;;;;4.10;3.53;;;;;;;;;;5089074;28;20275;-81
2021/08/21 02:14:22;;;;;;;3.97;3.67;;;;;;;;;;5073972;28;20309;-81
2021/08/21 02:16:50;;;;;;;4.30;3.40;;;;;;;;;;5089402;28;20214;-81
2021/08/21 02:19:18;;;;;;;4.40;3.60;;;;;;;;;;5072441;28;20708;-82
2021/08/21 02:21:44;;;;;;;3.97;3.67;;;;;;;;;;5073694;28;20211;-81
2021/08/21 02:24:11;;;;;;;4.60;3.50;;;;;;;;;;5072236;28;20284;-82
2021/08/21 02:26:41;;;;;;;3.93;3.73;;;;;;;;;;5072077;28;20269;-82
2021/08/21 02:29:08;;;;;;;4.13;3.63;;;;;;;;;;5073413;28;20234;-82
2021/08/21 02:31:34;;;;;;;3.90;3.50;;;;;;;;;;5088819;28;20202;-82
2021/08/21 02:34:01;;;;;;;4.07;3.67;;;;;;;;;;5073356;28;20258;-81
2021/08/21 02:36:29;;;;;;;3.83;3.63;;;;;;;;;;5071774;28;20327;-81
2021/08/21 02:38:56;;;;;;;4.90;3.97;;;;;;;;;;5071962;28;20256;-81
2021/08/21 02:41:23;;;;;;;3.63;3.43;;;;;;;;;;5073234;28;20670;-81
2021/08/21 02:43:50;;;;;;;4.00;3.67;;;;;;;;;;5071411;28;20230;-82
2021/08/21 02:46:16;;;;;;;4.30;3.90;;;;;;;;;;5071347;28;20260;-81
2021/08/21 02:48:43;;;;;;;3.60;3.30;;;;;;;;;;5073320;28;20238;-81
2021/08/21 02:51:10;;;;;;;4.00;3.60;;;;;;;;;;5071599;28;20261;-82
2021/08/21 02:53:38;;;;;;;7.83;3.57;;;;;;;;;;5071804;28;20230;-81
2021/08/21 02:56:05;;;;;;;4.40;3.40;;;;;;;;;;5071477;28;20224;-82
2021/08/21 02:58:31;;;;;;;3.53;3.30;;;;;;;;;;5073185;28;20203;-81
2021/08/21 03:00:58;;;;;;;3.60;3.30;;;;;;;;;;5071765;28;20276;-81
2021/08/21 03:03:24;;;;;;;3.63;3.40;;;;;;;;;;5071841;28;20222;-81
2021/08/21 03:05:51;;;;;;;3.73;3.40;;;;;;;;;;5070298;28;20250;-81
2021/08/21 03:08:18;;;;;;;3.73;3.43;;;;;;;;;;5071353;28;20202;-81
2021/08/21 03:10:46;;;;;;;4.50;3.00;;;;;;;;;;5072811;28;20210;-81
2021/08/21 03:13:12;;;;;;;3.60;3.40;;;;;;;;;;5071790;28;20199;-81
2021/08/21 03:15:39;;;;;;;5.77;3.33;;;;;;;;;;5072595;28;20231;-81
2021/08/21 03:18:06;;;;;;;4.00;3.70;;;;;;;;;;5072279;28;20230;-82
2021/08/21 03:20:34;;;;;;;3.57;3.27;;;;;;;;;;5072638;28;20240;-81
2021/08/21 03:23:00;;;;;;;4.87;3.40;;;;;;;;;;5072424;28;20238;-81
2021/08/21 03:25:27;;;;;;;3.90;3.60;;;;;;;;;;5071866;28;20257;-81
2021/08/21 03:27:55;;;;;;;3.70;3.20;;;;;;;;;;5053940;28;20232;-81
2021/08/21 03:30:22;;;;;;;3.07;2.90;;;;;;;;;;5054074;28;20252;-82
2021/08/21 03:32:48;;;;;;;4.40;3.40;;;;;;;;;;5072420;28;20599;-81
2021/08/21 03:35:15;;;;;;;3.63;3.30;;;;;;;;;;5053605;28;20225;-81
2021/08/21 03:37:42;;;;;;;3.60;3.30;;;;;;;;;;5054387;28;20666;-81
2021/08/21 03:40:10;;;;;;;3.87;3.43;;;;;;;;;;5053490;28;20292;-82
2021/08/21 03:42:37;;;;;;;3.33;3.13;;;;;;;;;;5071806;28;20810;-82
2021/08/21 03:45:05;;;;;;;3.30;3.10;;;;;;;;;;5071688;28;20254;-81
2021/08/21 03:47:32;;;;;;;3.60;3.40;;;;;;;;;;5054143;28;20219;-81
2021/08/21 03:49:59;;;;;;;7.90;3.73;;;;;;;;;;5072081;28;20257;-83
2021/08/21 03:52:25;;;;;;;3.77;3.50;;;;;;;;;;5054042;28;20195;-81
2021/08/21 03:54:52;;;;;;;4.03;3.63;;;;;;;;;;5053781;28;20276;-82
2021/08/21 03:57:19;;;;;;;7.03;3.63;;;;;;;;;;5071575;28;20238;-82
2021/08/21 03:59:45;;;;;;;3.57;3.17;;;;;;;;;;5071875;28;20221;-82
2021/08/21 04:02:13;;;;;;;5.30;3.80;;;;;;;;;;5071998;28;20253;-81
2021/08/21 04:04:40;;;;;;;4.30;4.00;;;;;;;;;;5053847;28;20593;-81
2021/08/21 04:07:07;;;;;;;4.17;3.87;;;;;;;;;;5053332;28;20218;-80
2021/08/21 04:09:33;;;;;;;4.07;3.77;;;;;;;;;;5053652;28;20662;-80
2021/08/21 04:12:00;;;;;;;4.00;3.70;;;;;;;;;;5053408;28;20194;-82
2021/08/21 04:14:26;;;;;;;4.23;3.87;;;;;;;;;;5053467;28;20226;-81
2021/08/21 04:16:53;;;;;;;4.10;3.70;;;;;;;;;;5053211;28;20206;-81
2021/08/21 04:19:21;;;;;;;3.73;3.43;;;;;;;;;;5070907;28;20650;-81
2021/08/21 04:21:48;;;;;;;3.97;3.50;;;;;;;;;;5052567;28;20252;-81
2021/08/21 04:24:14;;;;;;;5.20;4.30;;;;;;;;;;5071259;28;20238;-81
2021/08/21 04:26:41;;;;;;;4.73;3.97;;;;;;;;;;5066699;28;20625;-81
2021/08/21 04:29:10;;;;;;;4.43;4.13;;;;;;;;;;5069769;28;20214;-81
2021/08/21 04:31:37;;;;;;;4.27;3.87;;;;;;;;;;5069972;28;20256;-81
2021/08/21 04:34:03;;;;;;;4.17;3.87;;;;;;;;;;5069343;28;20231;-81
2021/08/21 04:36:31;;;;;;;4.23;3.90;;;;;;;;;;5069975;28;20210;-83
2021/08/21 04:38:58;;;;;;;3.80;3.47;;;;;;;;;;5069935;28;20337;-80
2021/08/21 04:41:25;;;;;;;6.20;4.17;;;;;;;;;;5071244;28;20720;-81
2021/08/21 04:43:51;;;;;;;4.37;3.97;;;;;;;;;;5069582;28;20217;-81
2021/08/21 04:46:18;;;;;;;5.63;3.77;;;;;;;;;;5069689;28;20242;-81
2021/08/21 04:48:45;;;;;;;4.17;3.80;;;;;;;;;;5071137;28;20304;-81
2021/08/21 04:51:11;;;;;;;5.17;3.90;;;;;;;;;;5068923;28;20246;-81
2021/08/21 04:53:39;;;;;;;4.57;4.17;;;;;;;;;;5069498;28;20209;-81
2021/08/21 04:56:06;;;;;;;6.00;3.77;;;;;;;;;;5069390;28;20555;-81
2021/08/21 04:58:33;;;;;;;4.40;3.97;;;;;;;;;;5069552;28;20190;-80
2021/08/21 05:00:59;;;;;;;4.30;3.93;;;;;;;;;;5070796;28;20254;-81
2021/08/21 05:03:26;;;;;;;4.50;4.03;;;;;;;;;;5069856;28;20209;-81
2021/08/21 05:05:53;;;;;;;4.67;4.27;;;;;;;;;;5069525;28;20238;-83
2021/08/21 05:08:19;;;;;;;5.77;4.20;;;;;;;;;;5086349;28;20234;-84
2021/08/21 05:10:47;;;;;;;4.17;3.73;;;;;;;;;;5070619;28;20241;-81
2021/08/21 05:13:14;;;;;;;3.80;3.50;;;;;;;;;;5069115;28;20226;-80
2021/08/21 05:15:41;;;;;;;4.57;4.20;;;;;;;;;;5070905;28;20248;-82
2021/08/21 05:18:09;;;;;;;4.53;4.10;;;;;;;;;;5086437;28;20195;-82
2021/08/21 05:20:43;;;;;;;4.30;4.00;;;;;;;;;;5069408;28;20636;-82
2021/08/21 05:23:14;;;;;;;5.57;4.50;;;;;;;;;;5070471;28;20239;-81
2021/08/21 05:25:42;;;;;;;4.13;3.93;;;;;;;;;;5070509;28;20272;-81
2021/08/21 05:28:11;;;;;;;6.00;4.70;;;;;;;;;;5053216;28;20531;-81
2021/08/21 05:30:39;;;;;;;4.63;4.23;;;;;;;;;;5055928;28;20553;-83
2021/08/21 05:33:07;;;;;;;5.00;4.13;;;;;;;;;;5074526;28;20211;-81
2021/08/21 05:35:34;;;;;;;8.03;4.53;;;;;;;;;;5056427;28;20195;-81
2021/08/21 05:38:01;;;;;;;6.00;4.40;;;;;;;;;;5074601;28;20704;-82
2021/08/21 05:40:27;;;;;;;6.97;4.27;;;;;;;;;;5074074;28;20242;-82
2021/08/21 05:42:54;;;;;;;8.87;4.23;;;;;;;;;;5073776;28;20601;-81
2021/08/21 05:45:22;;;;;;;4.77;4.20;;;;;;;;;;5074847;28;20248;-85
2021/08/21 05:47:51;;;;;;;4.93;4.43;;;;;;;;;;5056465;28;20226;-82
2021/08/21 05:50:18;;;;;;;5.87;4.00;;;;;;;;;;5056438;28;20222;-82
2021/08/21 05:52:44;;;;;;;5.83;4.20;;;;;;;;;;5074002;28;20271;-83
2021/08/21 05:55:11;;;;;;;4.33;4.03;;;;;;;;;;5056286;28;20202;-80
2021/08/21 05:57:38;;;;;;;6.13;4.60;;;;;;;;;;5074518;28;20214;-82
2021/08/21 06:00:05;;;;;;;5.63;4.30;;;;;;;;;;5056519;28;20252;-82
2021/08/21 06:02:33;;;;;;;5.67;4.40;;;;;;;;;;5056707;28;20190;-83
2021/08/21 06:05:00;;;;;;;4.17;3.80;;;;;;;;;;5074218;28;20242;-82
2021/08/21 06:07:27;;;;;;;7.57;4.70;;;;;;;;;;5074631;28;20245;-82
2021/08/21 06:09:53;;;;;;;4.50;4.10;;;;;;;;;;5056541;28;20299;-83
2021/08/21 06:12:20;;;;;;;4.60;4.20;;;;;;;;;;5073748;28;20213;-83
2021/08/21 06:14:47;;;;;;;8.90;4.43;;;;;;;;;;5073564;28;20234;-82
2021/08/21 06:17:13;;;;;;;4.60;4.30;;;;;;;;;;5074126;28;20195;-82
2021/08/21 06:19:42;;;;;;;6.30;4.40;;;;;;;;;;5055893;28;20367;-83
2021/08/21 06:22:08;;;;;;;4.87;4.10;;;;;;;;;;5055218;28;20559;-82
2021/08/21 06:24:35;;;;;;;4.80;4.33;;;;;;;;;;5073827;28;20206;-83
2021/08/21 06:27:02;;;;;;;6.60;4.87;;;;;;;;;;5073169;28;20254;-81
2021/08/21 06:29:34;;;;;;;5.53;4.27;;;;;;;;;;5055739;28;20230;-82
2021/08/21 06:32:01;;;;;;;5.20;4.70;;;;;;;;;;5056117;28;20248;-82
2021/08/21 06:34:28;;;;;;;7.40;4.77;;;;;;;;;;5073087;28;20249;-83
2021/08/21 06:36:56;;;;;;;6.43;4.47;;;;;;;;;;5055390;28;20260;-82
2021/08/21 06:39:23;;;;;;;6.57;4.40;;;;;;;;;;5072815;28;20242;-83
2021/08/21 06:41:49;;;;;;;5.20;4.73;;;;;;;;;;5073183;28;20206;-83
2021/08/21 06:44:16;;;;;;;6.83;4.80;;;;;;;;;;5073255;28;20214;-82
2021/08/21 06:46:43;;;;;;;5.87;4.47;;;;;;;;;;5055866;28;20230;-81
2021/08/21 06:49:10;;;;;;;5.07;4.67;;;;;;;;;;5073566;28;20230;-80
2021/08/21 06:51:36;;;;;;;7.63;4.33;;;;;;;;;;5055057;28;20222;-83
2021/08/21 06:54:04;;;;;;;4.80;4.40;;;;;;;;;;5055814;28;20191;-82
2021/08/21 06:56:31;;;;;;;5.23;4.83;;;;;;;;;;5055291;28;20241;-81
2021/08/21 06:58:58;;;;;;;5.30;4.87;;;;;;;;;;5073257;28;20759;-83
2021/08/21 07:01:24;;;;;;;5.40;4.90;;;;;;;;;;5055431;28;20234;-83
2021/08/21 07:03:51;;;;;;;7.57;5.00;;;;;;;;;;5055283;28;20206;-83
2021/08/21 07:06:17;;;;;;;7.30;5.37;;;;;;;;;;5073239;28;20230;-81
2021/08/21 07:08:44;;;;;;;6.53;4.60;;;;;;;;;;5072946;28;20226;-81
2021/08/21 07:11:12;;;;;;;5.37;4.87;;;;;;;;;;5055255;28;20202;-81
2021/08/21 07:13:39;;;;;;;5.23;4.67;;;;;;;;;;5073284;28;20190;-81
2021/08/21 07:16:05;;;;;;;6.40;4.83;;;;;;;;;;5055141;28;20599;-81
2021/08/21 07:18:32;;;;;;;6.70;5.50;;;;;;;;;;5054981;28;20696;-82
2021/08/21 07:20:59;;;;;;;4.73;4.30;;;;;;;;;;5054596;28;20236;-81
2021/08/21 07:23:25;;;;;;;7.23;4.30;;;;;;;;;;5054827;28;20252;-81
2021/08/21 07:25:52;;;;;;;5.17;4.53;;;;;;;;;;5072589;28;20261;-82
2021/08/21 07:28:20;;;;;;;5.93;4.47;;;;;;;;;;5054873;28;20186;-81
2021/08/21 07:30:46;;;;;;;9.40;5.00;;;;;;;;;;5054388;28;20203;-82
2021/08/21 07:33:13;;;;;;;5.10;4.60;;;;;;;;;;5054844;28;20271;-81
2021/08/21 07:35:40;;;;;;;5.70;4.80;;;;;;;;;;5071389;28;20233;-82
2021/08/21 07:38:06;;;;;;;8.40;4.87;;;;;;;;;;5054369;28;20195;-82
2021/08/21 07:40:34;;;;;;;4.90;4.50;;;;;;;;;;5072435;28;20609;-81
2021/08/21 07:43:01;;;;;;;6.40;4.60;;;;;;;;;;5054127;28;20210;-81
2021/08/21 07:45:30;;;;;;;6.77;4.90;;;;;;;;;;5072188;28;20244;-82
2021/08/21 07:47:56;;;;;;;5.50;4.53;;;;;;;;;;5053079;28;20234;-81
2021/08/21 07:50:23;;;;;;;7.10;4.70;;;;;;;;;;5072534;28;20246;-81
2021/08/21 07:52:50;;;;;;;7.33;4.80;;;;;;;;;;5053085;28;20226;-81
2021/08/21 07:55:16;;;;;;;5.28;4.80;;;;;;;;;;5034265;28;20203;-81
2021/08/21 07:57:43;;;;;;;5.55;5.05;;;;;;;;;;5034083;28;20238;-81
2021/08/21 08:00:10;;;;;;;9.52;4.82;;;;;;;;;;5034092;28;20580;-81
2021/08/21 08:02:38;;;;;;;13.43;4.70;;;;;;;;;;5052173;28;20209;-81
2021/08/21 08:05:05;;;;;;;5.50;4.72;;;;;;;;;;5065235;28;20230;-82
2021/08/21 08:07:32;;;;;;;9.88;4.53;;;;;;;;;;5053942;28;20227;-82
2021/08/21 08:09:58;;;;;;;8.27;4.20;;;;;;;;;;5072161;28;20540;-81
2021/08/21 08:12:25;;;;;;;5.18;4.10;;;;;;;;;;5072055;28;20226;-82
2021/08/21 08:14:52;;;;;;;4.28;4.00;;;;;;;;;;5053960;28;20218;-81
2021/08/21 08:17:18;;;;;;;7.93;3.63;;;;;;;;;;5053401;28;20253;-83
2021/08/21 08:19:46;;;;;;;4.60;3.40;;;;;;;;;;5054069;28;20195;-81
2021/08/21 08:22:13;;;;;;;6.60;3.65;;;;;;;;;;5071854;28;20242;-81
2021/08/21 08:24:40;;;;;;;4.72;3.88;;;;;;;;;;5071895;28;20183;-81
2021/08/21 08:27:06;;;;;;;7.60;4.35;;;;;;;;;;5053843;28;20242;-81
2021/08/21 08:29:33;;;;;;;7.75;4.38;;;;;;;;;;5054005;28;20724;-81
2021/08/21 08:32:01;;;;;;;5.63;3.65;;;;;;;;;;5054288;28;20798;-82
2021/08/21 08:34:27;;;;;;;3.97;3.58;;;;;;;;;;5071542;28;20241;-81
2021/08/21 08:36:55;;;;;;;4.40;3.90;;;;;;;;;;5071307;28;20234;-81
2021/08/21 08:39:22;;;;;;;3.70;3.40;;;;;;;;;;5053528;28;20607;-81
2021/08/21 08:41:49;;;;;;;3.30;3.00;;;;;;;;;;5053406;28;20220;-81
2021/08/21 08:44:16;;;;;;;4.57;2.67;;;;;;;;;;5071184;28;20731;-81
2021/08/21 08:46:43;;;;;;;4.28;3.30;;;;;;;;;;5071328;28;20229;-80
2021/08/21 08:49:10;;;;;;;3.90;3.20;;;;;;;;;;5053388;28;20214;-81
2021/08/21 08:51:36;;;;;;;4.05;3.20;;;;;;;;;;5053426;28;20223;-81
2021/08/21 08:54:05;;;;;;;3.78;3.05;;;;;;;;;;5071317;28;20211;-80
2021/08/21 08:56:31;;;;;;;5.15;3.25;;;;;;;;;;5053325;28;20712;-81
2021/08/21 08:58:58;;;;;;;3.33;2.85;;;;;;;;;;5071159;28;20242;-81
2021/08/21 09:01:24;;;;;;;4.15;2.65;;;;;;;;;;5070745;28;20280;-81
2021/08/21 09:03:51;;;;;;;3.50;3.00;;;;;;;;;;5069926;28;20702;-81
2021/08/21 09:06:33;;;;;;;2.75;2.55;;;;;;;;;;5053150;28;20203;-81
2021/08/21 09:09:10;;;;;;;2.83;2.50;;;;;;;;;;5053105;28;20272;-81
2021/08/21 09:11:40;;;;;;;3.15;2.95;;;;;;;;;;5053338;28;20229;-81
2021/08/21 09:14:15;;;;;;;2.90;2.70;;;;;;;;;;5052979;28;20236;-81
2021/08/21 09:16:42;;;;;;;3.25;2.53;;;;;;;;;;5053078;28;20220;-81
2021/08/21 09:19:09;;;;;;;9.23;3.70;;;;;;;;;;5071124;28;20214;-81
2021/08/21 09:21:35;;;;;;;3.50;2.47;;;;;;;;;;5052751;28;20202;-82
2021/08/21 09:24:22;;;;;;;2.97;2.78;;;;;;;;;;5070458;28;20241;-81
2021/08/21 09:26:50;;;;;;;3.63;2.95;;;;;;;;;;5049004;28;20776;-81
2021/08/21 09:29:23;;;;;;;3.53;3.03;;;;;;;;;;5049711;28;20203;-81
2021/08/21 09:31:50;;;;;;;3.10;2.90;;;;;;;;;;5051314;28;20204;-81
2021/08/21 09:34:19;;;;;;;2.78;2.53;;;;;;;;;;5051060;28;20203;-81
2021/08/21 09:36:46;;;;;;;2.97;2.70;;;;;;;;;;5049118;28;20710;-81
2021/08/21 09:39:13;;;;;;;3.10;2.80;;;;;;;;;;5050712;28;20235;-82
2021/08/21 09:41:53;;;;;;;4.72;2.75;;;;;;;;;;5049609;28;20678;-81
2021/08/21 09:44:25;;;;;;;3.00;2.80;;;;;;;;;;5049687;28;20223;-80
2021/08/21 09:47:06;;;;;;;3.25;2.90;;;;;;;;;;5049578;28;20191;-81
2021/08/21 09:49:33;;;;;;;6.32;2.60;;;;;;;;;;5048970;28;20203;-81
2021/08/21 09:52:05;;;;;;;3.15;2.95;;;;;;;;;;5050861;28;20583;-81
2021/08/21 09:54:32;;;;;;;3.30;2.90;;;;;;;;;;5049101;28;20203;-81
2021/08/21 09:57:00;;;;;;;3.10;2.90;;;;;;;;;;5048979;28;20211;-81
2021/08/21 09:59:33;;;;;;;3.13;2.97;;;;;;;;;;5049222;28;20227;-81
2021/08/21 10:02:01;;;;;;;2.67;2.58;;;;;;;;;;5048798;28;20203;-81
2021/08/21 10:04:27;;;;;;;3.63;2.95;;;;;;;;;;5048958;28;20555;-81
2021/08/21 10:06:54;;;;;;;3.08;2.70;;;;;;;;;;5049486;28;20245;-81
2021/08/21 10:09:21;;;;;;;2.72;2.60;;;;;;;;;;5050608;28;20242;-81
2021/08/21 10:11:49;;;;;;;2.50;2.22;;;;;;;;;;5050339;28;20246;-81
2021/08/21 10:14:19;;;;;;;2.88;2.70;;;;;;;;;;5051048;28;20218;-82
2021/08/21 10:16:48;;;;;;;3.17;2.80;;;;;;;;;;5053988;28;20235;-85
2021/08/21 10:19:16;;;;;;;3.00;2.40;;;;;;;;;;5044689;28;20215;-83
2021/08/21 10:21:48;;;;;;;2.88;2.50;;;;;;;;;;5052428;28;20729;-82
2021/08/21 10:24:15;;;;;;;3.38;2.42;;;;;;;;;;5054119;28;20203;-87
2021/08/21 10:26:42;;;;;;;2.45;2.35;;;;;;;;;;5039721;28;20240;-82
2021/08/21 10:29:10;;;;;;;2.78;2.40;;;;;;;;;;5034047;28;20286;-86
2021/08/21 10:31:39;;;;;;;2.80;2.60;;;;;;;;;;5034242;28;20211;-83
2021/08/21 10:34:07;;;;;;;2.53;2.40;;;;;;;;;;5035528;28;20245;-82
2021/08/21 10:36:40;;;;;;;3.03;2.72;;;;;;;;;;5054108;28;20582;-83
2021/08/21 10:39:16;;;;;;;2.53;2.42;;;;;;;;;;5056023;28;20638;-85
2021/08/21 10:41:43;;;;;;;2.90;2.70;;;;;;;;;;5054102;28;20206;-83
2021/08/21 10:44:10;;;;;;;2.67;2.55;;;;;;;;;;5053987;28;20247;-84
2021/08/21 10:46:55;;;;;;;2.60;2.40;;;;;;;;;;5052735;28;20180;-83
2021/08/21 10:49:40;;;;;;;6.60;2.63;;;;;;;;;;5035172;28;20308;-83
2021/08/21 10:52:09;;;;;;;4.35;2.55;;;;;;;;;;5051668;28;20203;-82
2021/08/21 10:54:44;;;;;;;2.60;2.50;;;;;;;;;;5052053;28;20223;-83
2021/08/21 10:57:27;;;;;;;4.70;3.08;;;;;;;;;;5052245;28;20716;-82
2021/08/21 10:59:54;;;;;;;2.63;2.42;;;;;;;;;;5053596;28;20242;-82
2021/08/21 11:02:41;;;;;;;2.70;2.40;;;;;;;;;;5035404;28;20272;-83
2021/08/21 11:05:28;;;;;;;3.65;2.67;;;;;;;;;;5052189;28;20717;-82
2021/08/21 11:08:02;;;;;;;2.67;2.20;;;;;;;;;;5051576;28;20242;-82
2021/08/21 11:10:30;;;;;;;3.10;2.50;;;;;;;;;;5052105;28;20241;-81
2021/08/21 11:12:57;;;;;;;2.83;2.58;;;;;;;;;;5051767;28;20211;-81
2021/08/21 11:15:24;;;;;;;5.50;2.55;;;;;;;;;;5053428;28;20250;-84
2021/08/21 11:17:52;;;;;;;2.47;2.38;;;;;;;;;;5052103;28;20191;-84
2021/08/21 11:20:25;;;;;;;7.50;2.60;;;;;;;;;;5053558;28;20231;-84
2021/08/21 11:23:07;;;;;;;2.50;2.30;;;;;;;;;;5051748;28;20269;-82
2021/08/21 11:25:37;;;;;;;3.25;2.67;;;;;;;;;;5054331;28;20813;-83
2021/08/21 11:28:06;;;;;;;2.53;2.33;;;;;;;;;;5035109;28;20203;-83
2021/08/21 11:30:33;;;;;;;3.15;2.90;;;;;;;;;;5053148;28;20241;-84
2021/08/21 11:33:03;;;;;;;3.92;2.47;;;;;;;;;;5053305;28;20560;-83
2021/08/21 11:35:32;;;;;;;2.42;2.33;;;;;;;;;;5053382;28;20235;-82
2021/08/21 11:37:59;;;;;;;4.40;2.63;;;;;;;;;;5035893;28;20180;-83
2021/08/21 11:40:35;;;;;;;3.05;2.22;;;;;;;;;;5036019;28;20207;-85
2021/08/21 11:43:03;;;;;;;2.92;2.55;;;;;;;;;;5035188;28;20253;-82
2021/08/21 11:45:30;;;;;;;2.60;2.40;;;;;;;;;;5052959;28;20200;-82
2021/08/21 11:47:57;;;;;;;4.80;2.45;;;;;;;;;;5035027;28;20254;-81
2021/08/21 11:50:30;;;;;;;2.60;2.40;;;;;;;;;;5052082;28;20262;-82
2021/08/21 11:52:58;;;;;;;5.63;2.58;;;;;;;;;;5034604;28;20269;-81
2021/08/21 11:55:26;;;;;;;2.38;2.28;;;;;;;;;;5034660;28;20555;-81
2021/08/21 11:57:52;;;;;;;2.30;2.15;;;;;;;;;;5034468;28;20199;-80
2021/08/21 12:00:20;;;;;;;3.58;2.33;;;;;;;;;;5051849;28;20242;-81
2021/08/21 12:02:48;;;;;;;2.45;2.30;;;;;;;;;;5052204;28;20210;-81
2021/08/21 12:05:15;;;;;;;2.97;2.45;;;;;;;;;;5034435;28;20226;-81
2021/08/21 12:07:43;;;;;;;2.70;2.50;;;;;;;;;;5035086;28;20203;-83
2021/08/21 12:10:10;;;;;;;2.80;2.60;;;;;;;;;;5034336;28;20215;-80
2021/08/21 12:12:37;;;;;;;7.40;2.80;;;;;;;;;;5034055;28;20235;-79
2021/08/21 12:15:05;;;;;;;2.90;2.70;;;;;;;;;;5052302;28;20690;-80
2021/08/21 12:17:34;;;;;;;2.70;2.58;;;;;;;;;;5051919;28;20199;-80
2021/08/21 12:20:02;;;;;;;4.28;2.60;;;;;;;;;;5052114;28;20207;-79
2021/08/21 12:22:29;;;;;;;3.15;2.60;;;;;;;;;;5017430;28;20237;-80
2021/08/21 12:24:58;;;;;;;2.50;2.40;;;;;;;;;;5033838;28;20222;-80
2021/08/21 12:27:25;;;;;;;2.30;2.20;;;;;;;;;;5033842;28;20215;-80
2021/08/21 12:30:06;;;;;;;2.70;2.50;;;;;;;;;;5033646;28;20285;-81
2021/08/21 12:32:32;;;;;;;2.90;2.53;;;;;;;;;;5050791;28;20721;-80
2021/08/21 12:35:09;;;;;;;4.80;2.50;;;;;;;;;;5051671;28;20204;-80
2021/08/21 12:37:36;;;;;;;2.47;2.38;;;;;;;;;;5050809;28;20206;-80
2021/08/21 12:40:08;;;;;;;2.60;2.40;;;;;;;;;;5051404;28;20249;-79
2021/08/21 12:42:35;;;;;;;2.60;2.40;;;;;;;;;;5033620;28;20269;-80
2021/08/21 12:45:17;;;;;;;2.95;2.55;;;;;;;;;;5051710;28;20560;-80
2021/08/21 12:47:44;;;;;;;2.28;2.15;;;;;;;;;;5051696;28;20634;-79
2021/08/21 12:50:11;;;;;;;2.50;2.30;;;;;;;;;;5051251;28;20794;-80
2021/08/21 12:52:38;;;;;;;2.40;2.30;;;;;;;;;;5033502;28;20601;-79
2021/08/21 12:55:06;;;;;;;2.97;2.60;;;;;;;;;;5033522;28;20242;-81
2021/08/21 12:57:35;;;;;;;2.35;2.25;;;;;;;;;;5033746;28;20548;-81
2021/08/21 13:00:02;;;;;;;2.30;2.20;;;;;;;;;;5051482;28;20204;-80
2021/08/21 13:02:39;;;;;;;2.70;2.50;;;;;;;;;;5033215;28;20227;-80
2021/08/21 13:05:06;;;;;;;2.80;2.60;;;;;;;;;;5051134;28;20238;-80
2021/08/21 13:07:43;;;;;;;2.50;2.40;;;;;;;;;;5051072;28;20246;-82
2021/08/21 13:10:10;;;;;;;2.75;2.55;;;;;;;;;;5032881;28;20690;-80
2021/08/21 13:12:38;;;;;;;6.97;2.50;;;;;;;;;;5033480;28;20744;-80
2021/08/21 13:15:06;;;;;;;3.90;2.50;;;;;;;;;;5033370;28;20245;-79
2021/08/21 13:17:33;;;;;;;2.40;2.20;;;;;;;;;;5033368;28;20737;-80
2021/08/21 13:20:00;;;;;;;2.50;2.40;;;;;;;;;;5033130;28;20207;-79
2021/08/21 13:22:28;;;;;;;2.50;2.30;;;;;;;;;;5032999;28;20207;-79
2021/08/21 13:24:55;;;;;;;3.38;2.60;;;;;;;;;;5051151;28;20199;-80
2021/08/21 13:27:22;;;;;;;2.60;2.40;;;;;;;;;;5050753;28;20651;-81
2021/08/21 13:29:50;;;;;;;2.42;2.33;;;;;;;;;;5051379;28;20654;-78
2021/08/21 13:32:17;;;;;;;2.35;2.25;;;;;;;;;;5051500;28;20263;-80
2021/08/21 13:34:44;;;;;;;2.92;2.30;;;;;;;;;;5033424;28;20215;-80
2021/08/21 13:37:11;;;;;;;5.45;2.80;;;;;;;;;;5051324;28;20207;-80
2021/08/21 13:39:38;;;;;;;2.60;2.40;;;;;;;;;;5049894;28;20647;-80
2021/08/21 13:42:05;;;;;;;2.72;2.53;;;;;;;;;;5033380;28;20771;-80
2021/08/21 13:44:32;;;;;;;2.60;2.40;;;;;;;;;;5051216;28;20214;-82
2021/08/21 13:47:01;;;;;;;2.95;2.70;;;;;;;;;;5051040;28;20296;-84
2021/08/21 13:49:28;;;;;;;2.75;2.65;;;;;;;;;;5034142;28;20672;-80
2021/08/21 13:51:54;;;;;;;2.67;2.50;;;;;;;;;;5037023;28;20238;-84
2021/08/21 13:54:22;;;;;;;2.58;2.38;;;;;;;;;;5037360;28;20705;-84
2021/08/21 13:56:49;;;;;;;2.97;2.78;;;;;;;;;;5055143;28;20671;-83
2021/08/21 13:59:16;;;;;;;4.35;2.30;;;;;;;;;;5037230;28;20249;-83
2021/08/21 14:01:42;;;;;;;2.97;2.78;;;;;;;;;;5038327;28;20199;-85
2021/08/21 14:04:11;;;;;;;2.80;2.70;;;;;;;;;;5038191;28;20226;-87
2021/08/21 14:06:38;;;;;;;2.60;2.50;;;;;;;;;;5056233;28;20172;-87
2021/08/21 14:09:06;;;;;;;3.05;2.47;;;;;;;;;;5038777;28;20219;-85
2021/08/21 14:11:33;;;;;;;2.95;2.67;;;;;;;;;;5038890;28;20196;-87
2021/08/21 14:13:59;;;;;;;2.30;2.30;;;;;;;;;;5038358;28;20203;-87
2021/08/21 14:16:26;;;;;;;3.53;2.38;;;;;;;;;;5038198;28;20728;-85
2021/08/21 14:18:53;;;;;;;2.72;2.53;;;;;;;;;;5038168;28;20199;-87
2021/08/21 14:21:23;;;;;;;3.65;2.30;;;;;;;;;;5039190;28;20219;-86
2021/08/21 14:23:49;;;;;;;2.03;1.90;;;;;;;;;;5038468;28;20199;-87
2021/08/21 14:26:16;;;;;;;2.95;2.85;;;;;;;;;;5055412;28;20219;-87
2021/08/21 14:28:43;;;;;;;2.70;2.50;;;;;;;;;;5038242;28;20654;-86
2021/08/21 14:31:10;;;;;;;2.40;2.25;;;;;;;;;;5037570;28;20220;-87
2021/08/21 14:33:39;;;;;;;2.88;2.67;;;;;;;;;;5038219;28;20188;-87
2021/08/21 14:36:06;;;;;;;4.95;2.28;;;;;;;;;;5055943;28;20207;-88
2021/08/21 14:38:35;;;;;;;2.17;2.08;;;;;;;;;;5037102;28;20195;-87
2021/08/21 14:41:02;;;;;;;2.70;2.20;;;;;;;;;;5054811;28;20590;-86
2021/08/21 14:43:30;;;;;;;2.83;2.50;;;;;;;;;;5038069;28;20721;-86
2021/08/21 14:45:57;;;;;;;2.40;2.20;;;;;;;;;;5055376;28;20207;-86
2021/08/21 14:48:24;;;;;;;2.63;2.40;;;;;;;;;;5037376;28;20234;-87